Time;durP1;ratioP1;P1;durP2;ratioP2;P2;SDS_P1;SDS_P2;PMS_P1;PMS_P2;Temp;Humidity;BMP_temperature;BMP_pressure;BME280_temperature;BME280_humidity;BME280_pressure;Samples;Min_cycle;Max_cycle;Signal;HPM_P1;HPM_P2
2023/08/10 00:00:56;;;;;;;30.13;12.93;;;;;;;;;;5042151;28;20029;-78
2023/08/10 00:03:21;;;;;;;35.40;13.35;;;;;;;;;;5075595;28;20357;-78
2023/08/10 00:05:47;;;;;;;27.30;13.60;;;;;;;;;;5075425;28;20111;-78
2023/08/10 00:08:12;;;;;;;28.15;13.15;;;;;;;;;;5058525;28;20082;-79
2023/08/10 00:10:38;;;;;;;32.45;13.13;;;;;;;;;;5041809;28;20131;-77
2023/08/10 00:13:03;;;;;;;32.45;12.68;;;;;;;;;;5075162;28;20031;-79
2023/08/10 00:15:29;;;;;;;29.95;13.63;;;;;;;;;;5076512;28;20040;-78
2023/08/10 00:17:55;;;;;;;30.10;12.43;;;;;;;;;;5076360;28;20934;-77
2023/08/10 00:20:21;;;;;;;29.02;13.07;;;;;;;;;;5058942;28;20058;-78
2023/08/10 00:22:46;;;;;;;21.67;12.52;;;;;;;;;;5076103;28;20378;-77
2023/08/10 00:25:12;;;;;;;26.38;12.57;;;;;;;;;;5057771;28;20162;-77
2023/08/10 00:27:38;;;;;;;22.27;12.60;;;;;;;;;;5058259;28;20037;-77
2023/08/10 00:30:05;;;;;;;28.45;12.25;;;;;;;;;;5058337;28;20404;-77
2023/08/10 00:32:30;;;;;;;16.20;10.55;;;;;;;;;;5075755;28;20052;-78
2023/08/10 00:34:56;;;;;;;18.80;10.18;;;;;;;;;;5057971;28;20434;-77
2023/08/10 00:37:21;;;;;;;14.15;9.35;;;;;;;;;;5074560;28;20067;-76
2023/08/10 00:39:46;;;;;;;20.02;9.73;;;;;;;;;;5074177;28;20032;-77
2023/08/10 00:42:12;;;;;;;13.68;9.00;;;;;;;;;;5075619;28;20025;-77
2023/08/10 00:44:39;;;;;;;12.80;7.88;;;;;;;;;;5057665;28;20024;-77
2023/08/10 00:47:05;;;;;;;13.07;7.50;;;;;;;;;;5057702;28;20473;-78
2023/08/10 00:49:31;;;;;;;16.20;8.02;;;;;;;;;;5074588;28;20454;-77
2023/08/10 00:51:56;;;;;;;12.38;7.03;;;;;;;;;;5041186;28;20109;-78
2023/08/10 00:54:22;;;;;;;8.73;6.85;;;;;;;;;;5057308;28;20029;-78
2023/08/10 00:56:50;;;;;;;8.75;5.57;;;;;;;;;;5074211;28;20021;-78
2023/08/10 00:59:16;;;;;;;8.48;4.45;;;;;;;;;;5074257;28;20027;-77
2023/08/10 01:01:41;;;;;;;4.95;3.90;;;;;;;;;;5041071;28;20400;-78
2023/08/10 01:04:06;;;;;;;6.05;3.60;;;;;;;;;;5074112;28;20028;-77
2023/08/10 01:06:41;;;;;;;10.88;3.42;;;;;;;;;;5074006;28;20086;-78
2023/08/10 01:09:12;;;;;;;5.80;3.08;;;;;;;;;;5073851;28;20024;-79
2023/08/10 01:11:47;;;;;;;4.35;3.42;;;;;;;;;;5073971;28;20029;-79
2023/08/10 01:14:17;;;;;;;5.03;3.35;;;;;;;;;;5058122;28;20029;-79
2023/08/10 01:16:42;;;;;;;9.18;3.97;;;;;;;;;;5057555;28;20411;-77
2023/08/10 01:19:41;;;;;;;9.23;3.47;;;;;;;;;;5057125;28;20071;-78
2023/08/10 01:22:07;;;;;;;5.70;3.53;;;;;;;;;;5057109;28;20025;-78
2023/08/10 01:24:35;;;;;;;4.15;3.10;;;;;;;;;;5073608;28;20043;-78
2023/08/10 01:27:00;;;;;;;6.85;3.17;;;;;;;;;;5057298;28;20047;-78
2023/08/10 01:29:26;;;;;;;6.28;3.42;;;;;;;;;;5056887;28;20020;-79
2023/08/10 01:31:52;;;;;;;5.55;3.60;;;;;;;;;;5057249;28;20055;-79
2023/08/10 01:34:18;;;;;;;8.18;3.95;;;;;;;;;;5056997;28;20454;-79
2023/08/10 01:36:43;;;;;;;5.63;3.50;;;;;;;;;;5074593;28;20036;-79
2023/08/10 01:39:08;;;;;;;12.77;4.05;;;;;;;;;;5073366;28;20052;-79
2023/08/10 01:41:34;;;;;;;3.95;2.90;;;;;;;;;;5056758;28;20373;-79
2023/08/10 01:43:59;;;;;;;6.80;2.50;;;;;;;;;;5073303;28;20054;-78
2023/08/10 01:46:25;;;;;;;3.92;2.35;;;;;;;;;;5073383;28;20119;-79
2023/08/10 01:48:52;;;;;;;2.67;2.10;;;;;;;;;;5073261;28;20032;-79
2023/08/10 01:51:20;;;;;;;3.08;2.17;;;;;;;;;;5056636;28;20029;-78
2023/08/10 01:53:45;;;;;;;3.78;2.40;;;;;;;;;;5073228;28;20453;-79
2023/08/10 01:56:11;;;;;;;5.80;2.67;;;;;;;;;;5072651;28;20033;-78
2023/08/10 01:58:36;;;;;;;5.53;2.53;;;;;;;;;;5074255;28;20025;-79
2023/08/10 02:01:02;;;;;;;5.32;2.70;;;;;;;;;;5056693;28;20119;-79
2023/08/10 02:03:27;;;;;;;3.45;2.33;;;;;;;;;;5056362;28;20021;-79
2023/08/10 02:05:53;;;;;;;3.00;2.28;;;;;;;;;;5056103;28;20043;-78
2023/08/10 02:08:18;;;;;;;3.53;2.58;;;;;;;;;;5056588;28;20028;-79
2023/08/10 02:10:44;;;;;;;4.28;2.35;;;;;;;;;;5074170;28;20477;-79
2023/08/10 02:13:09;;;;;;;4.22;2.10;;;;;;;;;;5056287;28;20461;-79
2023/08/10 02:15:34;;;;;;;3.15;1.80;;;;;;;;;;5073046;28;20123;-78
2023/08/10 02:18:00;;;;;;;2.20;2.00;;;;;;;;;;5072888;28;20024;-79
2023/08/10 02:20:25;;;;;;;2.40;2.08;;;;;;;;;;5073715;28;20028;-79
2023/08/10 02:22:51;;;;;;;2.67;1.80;;;;;;;;;;5073987;28;20115;-79
2023/08/10 02:25:18;;;;;;;2.67;2.20;;;;;;;;;;5072622;28;20027;-78
2023/08/10 02:27:43;;;;;;;8.30;2.30;;;;;;;;;;5072860;28;20342;-78
2023/08/10 02:30:09;;;;;;;2.58;2.38;;;;;;;;;;5072762;28;20036;-79
2023/08/10 02:32:35;;;;;;;2.38;2.10;;;;;;;;;;5072722;28;20026;-79
2023/08/10 02:35:01;;;;;;;2.45;2.25;;;;;;;;;;5055681;28;20036;-80
2023/08/10 02:37:26;;;;;;;4.03;2.10;;;;;;;;;;5056143;28;20047;-79
2023/08/10 02:39:51;;;;;;;2.60;2.40;;;;;;;;;;5056239;28;20029;-79
2023/08/10 02:42:17;;;;;;;3.67;2.60;;;;;;;;;;5072805;28;20125;-79
2023/08/10 02:44:43;;;;;;;5.13;3.00;;;;;;;;;;5073601;28;20025;-80
2023/08/10 02:47:09;;;;;;;4.50;2.88;;;;;;;;;;5072535;28;20107;-78
2023/08/10 02:49:34;;;;;;;6.18;3.22;;;;;;;;;;5073824;28;20024;-79
2023/08/10 02:52:00;;;;;;;4.03;3.00;;;;;;;;;;5055936;28;20033;-79
2023/08/10 02:54:25;;;;;;;7.55;3.22;;;;;;;;;;5055702;28;20047;-79
2023/08/10 02:56:50;;;;;;;3.75;3.35;;;;;;;;;;5072399;28;20111;-80
2023/08/10 02:59:16;;;;;;;5.25;3.30;;;;;;;;;;5072356;28;20027;-79
2023/08/10 03:01:43;;;;;;;4.95;3.35;;;;;;;;;;5072460;28;20059;-80
2023/08/10 03:04:09;;;;;;;6.38;3.30;;;;;;;;;;5039654;28;20021;-79
2023/08/10 03:06:34;;;;;;;5.55;3.10;;;;;;;;;;5073361;28;20116;-79
2023/08/10 03:09:00;;;;;;;4.00;3.00;;;;;;;;;;5074403;28;20027;-80
2023/08/10 03:11:25;;;;;;;4.90;2.90;;;;;;;;;;5077547;28;20359;-79
2023/08/10 03:13:51;;;;;;;6.15;2.88;;;;;;;;;;5059337;28;20029;-79
2023/08/10 03:16:17;;;;;;;5.55;2.80;;;;;;;;;;5077293;28;20017;-79
2023/08/10 03:18:43;;;;;;;4.30;2.88;;;;;;;;;;5077223;28;20030;-79
2023/08/10 03:21:08;;;;;;;4.78;2.92;;;;;;;;;;5076026;28;20112;-79
2023/08/10 03:23:34;;;;;;;3.20;2.90;;;;;;;;;;5075918;28;20055;-78
2023/08/10 03:25:59;;;;;;;3.28;2.78;;;;;;;;;;5076871;28;20101;-79
2023/08/10 03:28:25;;;;;;;3.95;2.72;;;;;;;;;;5077142;28;20025;-80
2023/08/10 03:30:50;;;;;;;3.72;2.70;;;;;;;;;;5059390;28;20024;-80
2023/08/10 03:33:15;;;;;;;6.28;3.22;;;;;;;;;;5092524;28;20020;-79
2023/08/10 03:35:41;;;;;;;4.93;3.45;;;;;;;;;;5075687;28;20356;-79
2023/08/10 03:38:06;;;;;;;4.20;3.50;;;;;;;;;;5075627;28;20032;-79
2023/08/10 03:40:32;;;;;;;4.00;3.10;;;;;;;;;;5059261;28;20025;-79
2023/08/10 03:42:57;;;;;;;6.25;3.50;;;;;;;;;;5075642;28;20024;-79
2023/08/10 03:45:23;;;;;;;3.58;3.08;;;;;;;;;;5075657;28;20031;-79
2023/08/10 03:47:48;;;;;;;4.78;3.45;;;;;;;;;;5075268;28;20119;-78
2023/08/10 03:50:14;;;;;;;4.22;3.42;;;;;;;;;;5075670;28;20025;-79
2023/08/10 03:52:40;;;;;;;6.53;3.90;;;;;;;;;;5075755;28;20465;-78
2023/08/10 03:55:06;;;;;;;5.18;3.50;;;;;;;;;;5076589;28;20021;-79
2023/08/10 03:57:32;;;;;;;5.35;3.90;;;;;;;;;;5075670;28;20419;-80
2023/08/10 03:59:58;;;;;;;4.22;3.70;;;;;;;;;;5075242;28;20029;-79
2023/08/10 04:02:24;;;;;;;7.38;3.08;;;;;;;;;;5075043;28;20028;-79
2023/08/10 04:04:49;;;;;;;4.85;3.50;;;;;;;;;;5075199;28;20029;-78
2023/08/10 04:07:15;;;;;;;5.50;3.47;;;;;;;;;;5076600;28;20331;-78
2023/08/10 04:09:46;;;;;;;6.97;3.50;;;;;;;;;;5092085;28;20039;-78
2023/08/10 04:12:11;;;;;;;4.38;3.47;;;;;;;;;;5059221;28;20031;-79
2023/08/10 04:14:37;;;;;;;6.57;3.75;;;;;;;;;;5058294;28;20025;-78
2023/08/10 04:17:02;;;;;;;8.52;3.83;;;;;;;;;;5058323;28;20030;-79
2023/08/10 04:19:30;;;;;;;4.53;3.72;;;;;;;;;;5074610;28;20027;-79
2023/08/10 04:21:55;;;;;;;4.90;4.13;;;;;;;;;;5058631;28;20032;-79
2023/08/10 04:24:21;;;;;;;7.88;4.40;;;;;;;;;;5076036;28;20016;-78
2023/08/10 04:26:46;;;;;;;5.20;4.10;;;;;;;;;;5075779;28;20477;-79
2023/08/10 04:29:12;;;;;;;4.70;3.80;;;;;;;;;;5075967;28;20032;-78
2023/08/10 04:31:37;;;;;;;4.57;3.88;;;;;;;;;;5075835;28;20476;-79
2023/08/10 04:34:03;;;;;;;6.72;3.95;;;;;;;;;;5075858;28;20485;-79
2023/08/10 04:36:28;;;;;;;5.45;3.72;;;;;;;;;;5075912;28;20141;-79
2023/08/10 04:38:54;;;;;;;5.70;4.18;;;;;;;;;;5074771;28;20020;-79
2023/08/10 04:41:19;;;;;;;7.05;4.40;;;;;;;;;;5057783;28;20029;-79
2023/08/10 04:43:44;;;;;;;4.20;3.80;;;;;;;;;;5075688;28;20070;-79
2023/08/10 04:46:10;;;;;;;5.38;4.07;;;;;;;;;;5057664;28;20031;-78
2023/08/10 04:48:35;;;;;;;4.15;3.75;;;;;;;;;;5057671;28;20052;-79
2023/08/10 04:51:01;;;;;;;5.25;3.90;;;;;;;;;;5075729;28;20032;-79
2023/08/10 04:53:27;;;;;;;4.93;3.60;;;;;;;;;;5073959;28;20497;-79
2023/08/10 04:55:52;;;;;;;4.63;4.03;;;;;;;;;;5074113;28;20029;-79
2023/08/10 04:58:17;;;;;;;4.10;3.70;;;;;;;;;;5075420;28;20032;-79
2023/08/10 05:00:43;;;;;;;7.00;5.70;;;;;;;;;;5074050;28;20028;-79
2023/08/10 05:03:11;;;;;;;9.23;5.55;;;;;;;;;;5074141;28;20032;-79
2023/08/10 05:05:38;;;;;;;6.30;4.28;;;;;;;;;;5074134;28;20031;-79
2023/08/10 05:08:04;;;;;;;5.95;4.60;;;;;;;;;;5057458;28;20461;-79
2023/08/10 05:10:29;;;;;;;7.50;3.17;;;;;;;;;;5057522;28;20051;-79
2023/08/10 05:12:54;;;;;;;7.40;4.97;;;;;;;;;;5073654;28;20032;-79
2023/08/10 05:15:20;;;;;;;9.73;4.00;;;;;;;;;;5073616;28;20457;-80
2023/08/10 05:17:45;;;;;;;8.40;5.45;;;;;;;;;;5073967;28;20040;-80
2023/08/10 05:20:11;;;;;;;5.75;3.65;;;;;;;;;;5074892;28;20090;-80
2023/08/10 05:22:38;;;;;;;11.73;4.10;;;;;;;;;;5073804;28;20036;-80
2023/08/10 05:25:08;;;;;;;7.85;4.10;;;;;;;;;;5057088;28;20035;-79
2023/08/10 05:27:37;;;;;;;9.02;4.15;;;;;;;;;;5073778;28;20032;-79
2023/08/10 05:30:11;;;;;;;7.90;4.28;;;;;;;;;;5056741;28;20032;-79
2023/08/10 05:32:39;;;;;;;6.57;4.25;;;;;;;;;;5057055;28;20025;-80
2023/08/10 05:35:07;;;;;;;4.78;3.42;;;;;;;;;;5057094;28;20055;-80
2023/08/10 05:37:34;;;;;;;5.57;3.72;;;;;;;;;;5073433;28;20441;-80
2023/08/10 05:40:00;;;;;;;4.43;3.17;;;;;;;;;;5056960;28;20031;-80
2023/08/10 05:42:26;;;;;;;3.45;3.15;;;;;;;;;;5073228;28;20021;-79
2023/08/10 05:44:52;;;;;;;4.45;3.17;;;;;;;;;;5056257;28;20468;-78
2023/08/10 05:47:17;;;;;;;4.13;3.42;;;;;;;;;;5056802;28;20060;-78
2023/08/10 05:49:43;;;;;;;4.20;3.40;;;;;;;;;;5074367;28;20511;-78
2023/08/10 05:52:08;;;;;;;5.50;3.75;;;;;;;;;;5074522;28;20063;-78
2023/08/10 05:54:34;;;;;;;7.40;4.00;;;;;;;;;;5073032;28;20021;-79
2023/08/10 05:57:00;;;;;;;5.65;3.78;;;;;;;;;;5073484;28;20031;-79
2023/08/10 05:59:26;;;;;;;7.78;4.40;;;;;;;;;;5072692;28;20032;-79
2023/08/10 06:01:51;;;;;;;6.65;4.10;;;;;;;;;;5074152;28;20111;-78
2023/08/10 06:04:18;;;;;;;7.80;3.90;;;;;;;;;;5072820;28;20052;-78
2023/08/10 06:06:43;;;;;;;6.93;3.95;;;;;;;;;;5072870;28;20055;-78
2023/08/10 06:09:10;;;;;;;7.63;4.40;;;;;;;;;;5072917;28;20021;-78
2023/08/10 06:11:36;;;;;;;7.72;4.68;;;;;;;;;;5074112;28;20032;-78
2023/08/10 06:14:02;;;;;;;9.52;4.13;;;;;;;;;;5074456;28;20098;-78
2023/08/10 06:16:27;;;;;;;7.43;4.50;;;;;;;;;;5074559;28;20032;-86
2023/08/10 06:18:54;;;;;;;4.85;3.70;;;;;;;;;;5072824;28;20357;-87
2023/08/10 06:21:19;;;;;;;4.80;4.00;;;;;;;;;;5074040;28;20103;-84
2023/08/10 06:23:45;;;;;;;5.05;3.70;;;;;;;;;;5056282;28;20047;-85
2023/08/10 06:26:12;;;;;;;5.32;3.50;;;;;;;;;;5072198;28;20524;-85
2023/08/10 06:28:38;;;;;;;3.20;2.90;;;;;;;;;;5072933;28;20173;-86
2023/08/10 06:31:07;;;;;;;2.80;2.60;;;;;;;;;;5056829;28;20047;-86
2023/08/10 06:33:33;;;;;;;5.53;2.75;;;;;;;;;;5073455;28;20033;-87
2023/08/10 06:35:59;;;;;;;5.53;2.38;;;;;;;;;;5040054;28;20032;-86
2023/08/10 06:38:25;;;;;;;2.60;2.38;;;;;;;;;;5056334;28;20032;-85
2023/08/10 06:40:52;;;;;;;3.47;2.72;;;;;;;;;;5055837;28;20035;-86
2023/08/10 06:43:17;;;;;;;2.53;2.30;;;;;;;;;;5058401;28;20455;-86
2023/08/10 06:45:43;;;;;;;3.13;2.25;;;;;;;;;;5043845;28;20116;-86
2023/08/10 06:48:09;;;;;;;3.30;2.70;;;;;;;;;;5061170;28;20047;-88
2023/08/10 06:50:34;;;;;;;3.35;2.60;;;;;;;;;;5078520;28;20365;-84
2023/08/10 06:53:00;;;;;;;3.85;2.75;;;;;;;;;;5078058;28;20082;-84
2023/08/10 06:55:27;;;;;;;7.07;2.53;;;;;;;;;;5076513;28;20521;-84
2023/08/10 06:57:53;;;;;;;3.75;2.78;;;;;;;;;;5076714;28;20032;-86
2023/08/10 07:00:20;;;;;;;3.78;2.70;;;;;;;;;;5077683;28;20032;-88
2023/08/10 07:02:48;;;;;;;6.18;3.35;;;;;;;;;;5076439;28;20354;-88
2023/08/10 07:05:15;;;;;;;10.02;3.47;;;;;;;;;;5060108;28;20036;-80
2023/08/10 07:07:41;;;;;;;5.32;3.05;;;;;;;;;;5059597;28;20064;-79
2023/08/10 07:10:09;;;;;;;4.68;3.47;;;;;;;;;;5059228;28;20063;-79
2023/08/10 07:12:34;;;;;;;6.68;3.95;;;;;;;;;;5059894;28;20058;-79
2023/08/10 07:14:59;;;;;;;9.48;4.47;;;;;;;;;;5076166;28;20032;-80
2023/08/10 07:17:25;;;;;;;6.57;4.00;;;;;;;;;;5077064;28;20064;-80
2023/08/10 07:19:51;;;;;;;4.80;3.70;;;;;;;;;;5076150;28;20115;-81
2023/08/10 07:22:16;;;;;;;4.85;2.95;;;;;;;;;;5075527;28;20040;-80
2023/08/10 07:24:43;;;;;;;5.05;2.05;;;;;;;;;;5075382;28;20092;-80
2023/08/10 07:27:08;;;;;;;2.85;2.30;;;;;;;;;;5075459;28;20052;-81
2023/08/10 07:29:34;;;;;;;4.47;2.40;;;;;;;;;;5076190;28;20480;-80
2023/08/10 07:32:00;;;;;;;2.75;2.53;;;;;;;;;;5076523;28;20025;-79
2023/08/10 07:34:27;;;;;;;2.78;2.45;;;;;;;;;;5075696;28;20091;-80
2023/08/10 07:36:53;;;;;;;2.85;2.45;;;;;;;;;;5076946;28;20028;-81
2023/08/10 07:39:18;;;;;;;2.50;2.30;;;;;;;;;;5059047;28;20040;-81
2023/08/10 07:41:44;;;;;;;4.38;2.50;;;;;;;;;;5077086;28;20408;-81
2023/08/10 07:44:10;;;;;;;2.67;2.30;;;;;;;;;;5081002;28;20081;-81
2023/08/10 07:46:35;;;;;;;5.50;2.58;;;;;;;;;;5059119;28;20036;-81
2023/08/10 07:49:00;;;;;;;4.03;3.00;;;;;;;;;;5089747;28;20028;-81
2023/08/10 07:51:26;;;;;;;2.83;2.10;;;;;;;;;;5055388;28;20107;-81
2023/08/10 07:53:52;;;;;;;2.83;2.40;;;;;;;;;;5081666;28;20039;-80
2023/08/10 07:56:17;;;;;;;4.40;2.60;;;;;;;;;;5075249;28;20045;-80
2023/08/10 07:58:42;;;;;;;2.38;2.13;;;;;;;;;;5075973;28;20131;-81
2023/08/10 08:01:08;;;;;;;4.47;2.25;;;;;;;;;;5074953;28;20028;-81
2023/08/10 08:03:34;;;;;;;2.88;2.63;;;;;;;;;;5059107;28;20028;-81
2023/08/10 08:06:00;;;;;;;2.88;2.05;;;;;;;;;;5076803;28;20058;-81
2023/08/10 08:08:28;;;;;;;3.10;2.08;;;;;;;;;;5076506;28;20494;-80
2023/08/10 08:10:54;;;;;;;3.85;2.08;;;;;;;;;;5059250;28;20139;-81
2023/08/10 08:13:19;;;;;;;2.35;2.08;;;;;;;;;;5076969;28;20021;-81
2023/08/10 08:15:44;;;;;;;2.67;2.47;;;;;;;;;;5075736;28;20354;-81
2023/08/10 08:18:41;;;;;;;3.30;2.42;;;;;;;;;;5075424;28;20032;-82
2023/08/10 08:21:08;;;;;;;3.67;2.20;;;;;;;;;;5075352;28;20040;-82
2023/08/10 08:23:33;;;;;;;2.83;2.22;;;;;;;;;;5058878;28;20032;-82
2023/08/10 08:25:59;;;;;;;5.60;2.20;;;;;;;;;;5074944;28;20097;-81
2023/08/10 08:28:24;;;;;;;3.47;2.20;;;;;;;;;;5075300;28;20029;-82
2023/08/10 08:30:50;;;;;;;2.13;1.90;;;;;;;;;;5075177;28;20071;-81
2023/08/10 08:33:16;;;;;;;2.42;1.83;;;;;;;;;;5075193;28;20028;-81
2023/08/10 08:35:45;;;;;;;2.20;1.85;;;;;;;;;;5075055;28;20444;-81
2023/08/10 08:38:10;;;;;;;4.25;1.80;;;;;;;;;;5041998;28;20047;-81
2023/08/10 08:40:35;;;;;;;2.28;1.98;;;;;;;;;;5075075;28;20029;-81
2023/08/10 08:43:01;;;;;;;2.50;1.70;;;;;;;;;;5058442;28;20028;-82
2023/08/10 08:45:27;;;;;;;4.82;1.80;;;;;;;;;;5058640;28;20031;-80
2023/08/10 08:47:52;;;;;;;2.67;2.10;;;;;;;;;;5057844;28;20036;-81
2023/08/10 08:50:18;;;;;;;5.25;1.85;;;;;;;;;;5058212;28;20055;-81
2023/08/10 08:52:43;;;;;;;3.90;2.20;;;;;;;;;;5075616;28;20025;-80
2023/08/10 08:55:11;;;;;;;2.72;2.35;;;;;;;;;;5041770;28;20029;-81
2023/08/10 08:57:37;;;;;;;3.80;2.17;;;;;;;;;;5058047;28;20021;-81
2023/08/10 09:00:03;;;;;;;3.13;2.00;;;;;;;;;;5057893;28;20029;-81
2023/08/10 09:02:28;;;;;;;3.25;2.10;;;;;;;;;;5075461;28;20031;-81
2023/08/10 09:04:59;;;;;;;4.90;2.25;;;;;;;;;;5040984;28;20346;-81
2023/08/10 09:07:27;;;;;;;6.78;2.50;;;;;;;;;;5056788;28;20453;-82
2023/08/10 09:09:54;;;;;;;17.13;8.52;;;;;;;;;;5057996;28;20090;-81
2023/08/10 09:12:35;;;;;;;4.95;3.28;;;;;;;;;;5074045;28;20062;-81
2023/08/10 09:15:03;;;;;;;7.32;2.75;;;;;;;;;;5073927;28;20098;-81
2023/08/10 09:17:29;;;;;;;5.13;3.25;;;;;;;;;;5075272;28;20415;-82
2023/08/10 09:19:55;;;;;;;16.77;3.70;;;;;;;;;;5057818;28;20077;-81
2023/08/10 09:22:48;;;;;;;4.13;2.58;;;;;;;;;;5073755;28;20028;-82
2023/08/10 09:25:14;;;;;;;4.93;2.90;;;;;;;;;;5070588;28;20698;-81
2023/08/10 09:27:39;;;;;;;3.38;2.92;;;;;;;;;;5057203;28;20038;-80
2023/08/10 09:30:06;;;;;;;6.15;3.63;;;;;;;;;;5039173;28;20303;-80
2023/08/10 09:32:32;;;;;;;6.22;4.43;;;;;;;;;;5073589;28;20123;-81
2023/08/10 09:34:57;;;;;;;5.97;3.75;;;;;;;;;;5056658;28;20075;-81
2023/08/10 09:37:24;;;;;;;6.10;3.53;;;;;;;;;;5057238;28;20036;-81
2023/08/10 09:40:06;;;;;;;8.15;4.07;;;;;;;;;;5073584;28;20050;-81
2023/08/10 09:42:31;;;;;;;8.07;4.45;;;;;;;;;;5057890;28;20510;-82
2023/08/10 09:44:57;;;;;;;6.90;4.18;;;;;;;;;;5073357;28;20029;-81
2023/08/10 09:47:23;;;;;;;9.82;4.30;;;;;;;;;;5075020;28;20033;-81
2023/08/10 09:50:01;;;;;;;12.27;4.28;;;;;;;;;;5056376;28;20029;-81
2023/08/10 09:52:27;;;;;;;5.68;4.10;;;;;;;;;;5073475;28;20373;-81
2023/08/10 09:54:54;;;;;;;6.75;3.92;;;;;;;;;;5056765;28;20050;-80
2023/08/10 09:57:19;;;;;;;7.22;4.15;;;;;;;;;;5073159;28;20386;-81
2023/08/10 09:59:45;;;;;;;14.25;8.30;;;;;;;;;;5056611;28;20040;-81
2023/08/10 10:02:11;;;;;;;8.43;4.63;;;;;;;;;;5074372;28;20029;-81
2023/08/10 10:04:38;;;;;;;8.23;4.25;;;;;;;;;;5056414;28;20089;-81
2023/08/10 10:07:04;;;;;;;5.30;4.00;;;;;;;;;;5074423;28;20028;-81
2023/08/10 10:09:30;;;;;;;6.78;4.03;;;;;;;;;;5073028;28;20525;-81
2023/08/10 10:11:56;;;;;;;4.57;3.50;;;;;;;;;;5040021;28;20020;-81
2023/08/10 10:14:21;;;;;;;6.88;3.65;;;;;;;;;;5056590;28;20109;-82
2023/08/10 10:16:49;;;;;;;10.02;5.82;;;;;;;;;;5056817;28;20020;-80
2023/08/10 10:19:14;;;;;;;4.57;3.75;;;;;;;;;;5056520;28;20029;-80
2023/08/10 10:21:40;;;;;;;5.35;3.58;;;;;;;;;;5056278;28;20342;-80
2023/08/10 10:24:06;;;;;;;16.60;3.58;;;;;;;;;;5056263;28;20020;-81
2023/08/10 10:26:31;;;;;;;8.48;4.18;;;;;;;;;;5072635;28;20098;-80
2023/08/10 10:29:16;;;;;;;9.80;4.00;;;;;;;;;;5132581;27;20402;-80
2023/08/10 10:31:41;;;;;;;7.82;4.03;;;;;;;;;;5131660;28;20031;-80
2023/08/10 10:34:11;;;;;;;5.43;4.10;;;;;;;;;;5114454;28;20176;-80
2023/08/10 10:36:38;;;;;;;8.77;4.43;;;;;;;;;;5114542;28;20058;-80
2023/08/10 10:39:07;;;;;;;9.35;3.65;;;;;;;;;;5114976;28;20027;-80
2023/08/10 10:41:34;;;;;;;5.95;3.67;;;;;;;;;;5131268;28;20031;-80
2023/08/10 10:44:02;;;;;;;7.70;3.90;;;;;;;;;;5114805;28;20027;-80
2023/08/10 10:46:37;;;;;;;4.18;3.60;;;;;;;;;;5131404;27;20070;-81
2023/08/10 10:49:13;;;;;;;4.10;3.58;;;;;;;;;;5131932;27;20031;-81
2023/08/10 10:52:00;;;;;;;5.50;3.65;;;;;;;;;;5132216;27;20031;-80
2023/08/10 10:54:27;;;;;;;5.22;3.65;;;;;;;;;;5131305;28;20059;-81
2023/08/10 10:56:53;;;;;;;13.18;4.30;;;;;;;;;;5097668;28;20057;-81
2023/08/10 10:59:20;;;;;;;8.38;4.00;;;;;;;;;;5131365;28;20023;-81
2023/08/10 11:01:47;;;;;;;6.13;3.90;;;;;;;;;;5113882;28;20097;-81
2023/08/10 11:04:12;;;;;;;7.43;4.13;;;;;;;;;;5131145;28;20019;-80
2023/08/10 11:06:38;;;;;;;7.53;4.25;;;;;;;;;;5115057;28;20422;-88
2023/08/10 11:09:06;;;;;;;10.15;4.25;;;;;;;;;;5139671;27;20042;-88
2023/08/10 11:11:32;;;;;;;6.75;3.97;;;;;;;;;;5133343;28;20102;-89
2023/08/10 11:13:57;;;;;;;8.05;4.30;;;;;;;;;;5130529;28;20116;-90
2023/08/10 11:16:23;;;;;;;6.80;4.30;;;;;;;;;;5099110;28;20028;-90
2023/08/10 11:18:50;;;;;;;7.13;3.90;;;;;;;;;;5132216;27;20359;-88
2023/08/10 11:21:16;;;;;;;9.45;3.90;;;;;;;;;;5100123;28;20032;-89
2023/08/10 11:23:41;;;;;;;5.78;4.40;;;;;;;;;;5097828;28;20032;-90
2023/08/10 11:26:07;;;;;;;5.05;3.60;;;;;;;;;;5098784;28;20038;-87
2023/08/10 11:28:33;;;;;;;8.25;3.80;;;;;;;;;;5114593;28;20051;-88
2023/08/10 11:31:03;;;;;;;6.90;3.45;;;;;;;;;;5113608;28;20513;-87
2023/08/10 11:33:28;;;;;;;8.75;3.65;;;;;;;;;;5113614;28;20024;-81
2023/08/10 11:35:54;;;;;;;4.93;3.45;;;;;;;;;;5129649;28;20042;-80
2023/08/10 11:38:20;;;;;;;7.95;4.07;;;;;;;;;;5131169;27;20076;-82
2023/08/10 11:40:46;;;;;;;6.18;3.75;;;;;;;;;;5116165;28;20119;-84
2023/08/10 11:43:14;;;;;;;5.38;3.60;;;;;;;;;;5099444;28;20098;-84
2023/08/10 11:45:39;;;;;;;5.88;3.15;;;;;;;;;;5083001;28;20079;-85
2023/08/10 11:48:06;;;;;;;5.65;2.83;;;;;;;;;;5116001;28;20043;-83
2023/08/10 11:50:32;;;;;;;3.45;2.85;;;;;;;;;;5099529;28;20039;-85
2023/08/10 11:52:58;;;;;;;4.93;2.67;;;;;;;;;;5099137;28;20032;-83
2023/08/10 11:55:27;;;;;;;3.30;2.70;;;;;;;;;;5082221;28;20027;-83
2023/08/10 11:57:54;;;;;;;3.28;2.85;;;;;;;;;;5099437;28;20356;-83
2023/08/10 12:00:31;;;;;;;3.85;2.90;;;;;;;;;;5099088;28;20453;-84
2023/08/10 12:03:01;;;;;;;6.32;3.03;;;;;;;;;;5117050;28;20030;-83
2023/08/10 12:05:38;;;;;;;;;;;;;;;;;;5116657;28;20397;-84
2023/08/10 12:08:05;;;;;;;6.30;3.08;;;;;;;;;;5117417;28;20010;-84
2023/08/10 12:10:49;;;;;;;7.97;2.80;;;;;;;;;;5099622;28;20028;-83
2023/08/10 12:13:16;;;;;;;3.40;2.90;;;;;;;;;;5115870;28;20436;-84
2023/08/10 12:15:46;;;;;;;4.30;2.80;;;;;;;;;;5098718;28;20032;-83
2023/08/10 12:18:12;;;;;;;7.35;3.05;;;;;;;;;;5098963;28;20031;-83
2023/08/10 12:20:38;;;;;;;4.13;2.90;;;;;;;;;;5098761;28;20031;-84
2023/08/10 12:23:03;;;;;;;6.70;2.88;;;;;;;;;;5115468;28;20035;-84
2023/08/10 12:25:29;;;;;;;4.82;2.83;;;;;;;;;;5081756;28;20036;-83
2023/08/10 12:27:54;;;;;;;3.10;2.85;;;;;;;;;;5115266;28;20043;-83
2023/08/10 12:30:20;;;;;;;5.00;2.78;;;;;;;;;;5115733;28;20109;-83
2023/08/10 12:32:45;;;;;;;3.28;2.97;;;;;;;;;;5081529;28;20118;-84
2023/08/10 12:35:11;;;;;;;4.80;2.88;;;;;;;;;;5098171;28;20023;-84
2023/08/10 12:37:37;;;;;;;4.18;2.97;;;;;;;;;;5115081;28;20463;-83
2023/08/10 12:40:03;;;;;;;4.38;3.00;;;;;;;;;;5115297;28;20055;-84
2023/08/10 12:42:29;;;;;;;4.88;2.80;;;;;;;;;;5115033;28;20671;-84
2023/08/10 12:44:54;;;;;;;9.95;3.13;;;;;;;;;;5114805;28;20110;-84
2023/08/10 12:47:20;;;;;;;5.93;3.08;;;;;;;;;;5098056;28;20381;-83
2023/08/10 12:49:45;;;;;;;3.10;2.85;;;;;;;;;;5097928;28;20031;-84
2023/08/10 12:52:10;;;;;;;5.78;3.15;;;;;;;;;;5096746;28;20337;-84
2023/08/10 12:54:36;;;;;;;4.40;3.20;;;;;;;;;;5080885;28;20371;-83
2023/08/10 12:57:02;;;;;;;8.40;3.30;;;;;;;;;;5097600;28;20079;-83
2023/08/10 12:59:29;;;;;;;4.45;2.97;;;;;;;;;;5097829;28;20027;-84
2023/08/10 13:01:54;;;;;;;7.38;3.50;;;;;;;;;;5097687;28;20122;-83
2023/08/10 13:04:20;;;;;;;3.78;3.00;;;;;;;;;;5080973;28;20078;-82
2023/08/10 13:06:46;;;;;;;4.40;3.20;;;;;;;;;;5114522;28;20027;-84
2023/08/10 13:09:11;;;;;;;4.90;3.15;;;;;;;;;;5114525;28;20081;-83
2023/08/10 13:11:37;;;;;;;3.28;2.97;;;;;;;;;;5097329;28;20027;-84
2023/08/10 13:14:03;;;;;;;5.07;3.47;;;;;;;;;;5114115;28;20406;-84
2023/08/10 13:16:28;;;;;;;3.78;2.95;;;;;;;;;;5114544;28;20024;-84
2023/08/10 13:18:54;;;;;;;10.35;3.42;;;;;;;;;;5097302;28;20032;-84
2023/08/10 13:21:19;;;;;;;6.00;3.38;;;;;;;;;;5114234;28;20036;-84
2023/08/10 13:23:45;;;;;;;7.57;3.35;;;;;;;;;;5097121;28;20038;-83
2023/08/10 13:26:10;;;;;;;5.35;3.38;;;;;;;;;;5097346;28;20024;-83
2023/08/10 13:28:36;;;;;;;6.28;3.40;;;;;;;;;;5114971;28;20043;-84
2023/08/10 13:31:01;;;;;;;4.30;3.30;;;;;;;;;;5113937;28;20062;-84
2023/08/10 13:33:28;;;;;;;5.07;3.55;;;;;;;;;;5114330;28;20034;-84
2023/08/10 13:35:54;;;;;;;6.35;3.83;;;;;;;;;;5114130;28;20031;-84
2023/08/10 13:38:19;;;;;;;5.32;3.38;;;;;;;;;;5113921;28;20035;-84
2023/08/10 13:40:45;;;;;;;4.07;3.22;;;;;;;;;;5080151;28;20067;-83
2023/08/10 13:43:10;;;;;;;7.60;3.80;;;;;;;;;;5079590;28;20367;-84
2023/08/10 13:45:36;;;;;;;7.57;3.53;;;;;;;;;;5080053;28;20495;-85
2023/08/10 13:48:03;;;;;;;5.75;3.45;;;;;;;;;;5096635;28;20039;-84
2023/08/10 13:50:28;;;;;;;8.65;3.55;;;;;;;;;;5113606;28;20117;-84
2023/08/10 13:52:54;;;;;;;8.65;4.00;;;;;;;;;;5096582;28;20119;-84
2023/08/10 13:55:19;;;;;;;5.18;3.30;;;;;;;;;;5096635;28;20031;-84
2023/08/10 13:57:44;;;;;;;5.70;3.80;;;;;;;;;;5113373;28;20525;-84
2023/08/10 14:00:11;;;;;;;7.43;3.95;;;;;;;;;;5079683;28;20039;-86
2023/08/10 14:02:39;;;;;;;4.53;3.47;;;;;;;;;;5080687;28;20032;-83
2023/08/10 14:05:06;;;;;;;6.38;3.50;;;;;;;;;;5113442;28;20019;-83
2023/08/10 14:07:31;;;;;;;10.68;3.70;;;;;;;;;;5113898;28;20027;-84
2023/08/10 14:09:57;;;;;;;7.50;3.83;;;;;;;;;;5113416;28;20061;-84
2023/08/10 14:12:22;;;;;;;4.72;3.67;;;;;;;;;;5096234;28;20441;-83
2023/08/10 14:14:48;;;;;;;5.00;3.60;;;;;;;;;;5113520;28;20456;-84
2023/08/10 14:17:13;;;;;;;8.30;3.67;;;;;;;;;;5113255;28;20437;-83
2023/08/10 14:19:38;;;;;;;4.25;3.40;;;;;;;;;;5096146;28;20406;-84
2023/08/10 14:22:04;;;;;;;8.65;3.67;;;;;;;;;;5079794;28;20349;-84
2023/08/10 14:24:29;;;;;;;5.82;3.22;;;;;;;;;;5115158;28;20024;-83
2023/08/10 14:26:55;;;;;;;5.65;3.67;;;;;;;;;;5079986;28;20031;-83
2023/08/10 14:29:20;;;;;;;4.03;3.60;;;;;;;;;;5080244;28;20019;-85
2023/08/10 14:31:46;;;;;;;7.15;3.65;;;;;;;;;;5096382;28;20043;-86
2023/08/10 14:34:12;;;;;;;6.82;3.90;;;;;;;;;;5096824;28;20057;-85
2023/08/10 14:36:37;;;;;;;5.78;3.42;;;;;;;;;;5115196;28;20023;-85